Terminal Aerodrome Forecast
Issued by NWS Green Bay, WI

Home | Current Version | Previous Version | Text Only | Print | Product List | Glossary Off
Versions: 1 2 3 4 5 6 7 8 9 10 11 12 13 14 15 16 17 18

000
FTUS43 KGRB 051430 AAB
TAFGRB
TAF AMD
KGRB 051430Z 0515/0612 24007KT P6SM BKN015
     FM051700 21006KT P6SM SCT015 BKN030
     FM060000 18006KT 5SM BR SCT010 BKN018 WS020/23035KT
     FM060700 18011G17KT P6SM OVC015=

USA.gov is the U.S. government's official web portal to all federal, state and local government web resources and services.